createdAt,value
2023-04-25T00:00:14.019Z,7.23
2023-04-25T00:01:14.041Z,7.24
2023-04-25T00:02:14.007Z,7.26
2023-04-25T00:03:14.166Z,7.27
2023-04-25T00:04:14.111Z,7.26
2023-04-25T00:05:13.993Z,7.31
2023-04-25T00:06:13.915Z,7.35
2023-04-25T00:07:13.921Z,7.37
2023-04-25T00:08:13.906Z,7.34
2023-04-25T00:09:13.931Z,7.37
2023-04-25T00:10:13.887Z,7.40
2023-04-25T00:11:13.850Z,7.40
2023-04-25T00:12:13.835Z,7.40
2023-04-25T00:13:13.837Z,7.41
2023-04-25T00:14:13.809Z,7.44
2023-04-25T00:15:13.824Z,7.45
2023-04-25T00:16:13.841Z,7.50
2023-04-25T00:17:13.773Z,7.49
2023-04-25T00:18:13.752Z,7.52
2023-04-25T00:19:13.808Z,7.50
2023-04-25T00:20:13.751Z,7.53
2023-04-25T00:21:13.713Z,7.52
2023-04-25T00:22:13.698Z,7.56
2023-04-25T00:23:13.705Z,7.55
2023-04-25T00:24:13.667Z,7.56
2023-04-25T00:25:13.687Z,7.58
2023-04-25T00:26:13.655Z,7.58
2023-04-25T00:27:13.642Z,7.56
2023-04-25T00:28:13.618Z,7.56
2023-04-25T00:29:13.634Z,7.58
2023-04-25T00:30:14.014Z,7.56
2023-04-25T00:31:13.615Z,7.63
2023-04-25T00:32:13.584Z,7.60
2023-04-25T00:33:13.618Z,7.66
2023-04-25T00:34:13.546Z,7.67
2023-04-25T00:35:13.549Z,7.67
2023-04-25T00:36:13.524Z,7.74
2023-04-25T00:37:13.507Z,7.67
2023-04-25T00:38:13.498Z,7.71
2023-04-25T00:39:13.494Z,7.71
2023-04-25T00:40:13.482Z,7.67
2023-04-25T00:41:13.450Z,7.67
2023-04-25T00:42:13.438Z,7.67
2023-04-25T00:43:13.418Z,7.72
2023-04-25T00:44:13.411Z,7.72
2023-04-25T00:45:13.420Z,7.72
2023-04-25T00:46:13.411Z,7.74
2023-04-25T00:47:13.394Z,7.72
2023-04-25T00:48:13.349Z,7.75
2023-04-25T00:49:13.352Z,7.75
2023-04-25T00:50:13.364Z,7.69
2023-04-25T00:51:13.332Z,7.72
2023-04-25T00:52:13.286Z,7.72
2023-04-25T00:53:13.319Z,7.72
2023-04-25T00:54:13.294Z,7.69
2023-04-25T00:55:13.299Z,7.67
2023-04-25T00:56:13.262Z,7.69
2023-04-25T00:57:13.230Z,7.69
2023-04-25T00:58:13.257Z,7.71
2023-04-25T00:59:13.202Z,7.62
2023-04-25T01:00:13.202Z,7.59
2023-04-25T01:01:13.236Z,7.60
2023-04-25T01:02:13.224Z,7.62
2023-04-25T01:03:13.269Z,7.63
2023-04-25T01:04:13.312Z,7.63
2023-04-25T01:05:13.231Z,7.66
2023-04-25T01:06:13.112Z,7.67
2023-04-25T01:07:13.121Z,7.69
2023-04-25T01:08:13.077Z,7.63
2023-04-25T01:09:13.087Z,7.59
2023-04-25T01:10:13.068Z,7.59
2023-04-25T01:11:13.048Z,7.59
2023-04-25T01:12:13.025Z,7.60
2023-04-25T01:13:13.096Z,7.58
2023-04-25T01:14:13.021Z,7.55
2023-04-25T01:15:13.029Z,7.58
2023-04-25T01:16:13.008Z,7.58
2023-04-25T01:17:12.967Z,7.58
2023-04-25T01:18:13.102Z,7.53
2023-04-25T01:19:12.934Z,7.53
2023-04-25T01:20:12.926Z,7.55
2023-04-25T01:21:12.932Z,7.53
2023-04-25T01:22:12.892Z,7.55
2023-04-25T01:23:12.874Z,7.58
2023-04-25T01:24:12.862Z,7.59
2023-04-25T01:25:12.881Z,7.56
2023-04-25T01:26:12.838Z,7.56
2023-04-25T01:27:12.844Z,7.55
2023-04-25T01:28:12.797Z,7.55
2023-04-25T01:29:12.823Z,7.56
2023-04-25T01:30:12.820Z,7.56
2023-04-25T01:31:12.807Z,7.56
2023-04-25T01:32:12.901Z,7.60
2023-04-25T01:33:14.248Z,7.59
2023-04-25T01:34:12.726Z,7.59
2023-04-25T01:35:12.794Z,7.59
2023-04-25T01:36:12.745Z,7.55
2023-04-25T01:37:12.697Z,7.53
2023-04-25T01:38:12.693Z,7.50
2023-04-25T01:39:12.659Z,7.49
2023-04-25T01:40:12.650Z,7.49
2023-04-25T01:41:12.646Z,7.49
2023-04-25T01:42:12.627Z,7.45
2023-04-25T01:43:12.621Z,7.49
2023-04-25T01:44:12.595Z,7.42
2023-04-25T01:45:12.591Z,7.47
2023-04-25T01:46:12.637Z,7.47
2023-04-25T01:47:12.559Z,7.47
2023-04-25T01:48:12.654Z,7.44
2023-04-25T01:49:12.535Z,7.45
2023-04-25T01:50:12.541Z,7.45
2023-04-25T01:51:12.569Z,7.45
2023-04-25T01:52:12.481Z,7.45
2023-04-25T01:53:12.481Z,7.42
2023-04-25T01:54:12.463Z,7.44
2023-04-25T01:55:12.497Z,7.49
2023-04-25T01:56:12.433Z,7.45
2023-04-25T01:57:12.430Z,7.44
2023-04-25T01:58:12.416Z,7.40
2023-04-25T01:59:12.407Z,7.41
2023-04-25T02:00:12.386Z,7.41
2023-04-25T02:01:12.430Z,7.38
2023-04-25T02:02:12.367Z,7.38
2023-04-25T02:03:12.536Z,7.37
2023-04-25T02:04:12.652Z,7.37
2023-04-25T02:05:12.331Z,7.44
2023-04-25T02:06:12.309Z,7.40
2023-04-25T02:07:12.284Z,7.42
2023-04-25T02:08:12.275Z,7.42
2023-04-25T02:09:12.268Z,7.41
2023-04-25T02:10:12.264Z,7.41
2023-04-25T02:11:12.242Z,7.40
2023-04-25T02:12:12.232Z,7.35
2023-04-25T02:13:12.208Z,7.37
2023-04-25T02:14:12.232Z,7.40
2023-04-25T02:15:12.223Z,7.38
2023-04-25T02:16:12.203Z,7.41
2023-04-25T02:17:12.253Z,7.45
2023-04-25T02:18:12.156Z,7.45
2023-04-25T02:19:12.137Z,7.47
2023-04-25T02:20:12.157Z,7.47
2023-04-25T02:21:12.155Z,7.49
2023-04-25T02:22:12.084Z,7.53
2023-04-25T02:23:12.084Z,7.58
2023-04-25T02:24:12.064Z,7.59
2023-04-25T02:25:12.081Z,7.62
2023-04-25T02:26:12.091Z,7.59
2023-04-25T02:27:12.035Z,7.60
2023-04-25T02:28:12.014Z,7.63
2023-04-25T02:29:12.021Z,7.58
2023-04-25T02:30:12.035Z,7.59
2023-04-25T02:31:12.042Z,7.53
2023-04-25T02:32:11.990Z,7.47
2023-04-25T02:33:11.980Z,7.45
2023-04-25T02:34:11.918Z,7.41
2023-04-25T02:35:11.953Z,7.41
2023-04-25T02:36:11.932Z,7.32
2023-04-25T02:37:11.907Z,7.35
2023-04-25T02:38:11.898Z,7.35
2023-04-25T02:39:11.879Z,7.27
2023-04-25T02:40:11.872Z,7.31
2023-04-25T02:41:11.838Z,7.24
2023-04-25T02:42:11.817Z,7.23
2023-04-25T02:43:11.816Z,7.22
2023-04-25T02:44:11.790Z,7.23
2023-04-25T02:45:11.830Z,7.24
2023-04-25T02:46:11.797Z,7.26
2023-04-25T02:47:11.768Z,7.23
2023-04-25T02:48:11.822Z,7.22
2023-04-25T02:49:11.742Z,7.24
2023-04-25T02:50:11.760Z,7.23
2023-04-25T02:51:11.710Z,7.26
2023-04-25T02:52:11.696Z,7.24
2023-04-25T02:53:11.773Z,7.24
2023-04-25T02:54:11.678Z,7.23
2023-04-25T02:55:11.690Z,7.23
2023-04-25T02:56:11.661Z,7.26
2023-04-25T02:57:11.614Z,7.23
2023-04-25T02:58:11.616Z,7.22
2023-04-25T02:59:11.603Z,7.20
2023-04-25T03:00:11.593Z,7.24
2023-04-25T03:01:11.610Z,7.17
2023-04-25T03:02:11.579Z,7.15
2023-04-25T03:03:11.630Z,7.13
2023-04-25T03:04:11.560Z,7.12
2023-04-25T03:05:11.566Z,7.12
2023-04-25T03:06:11.496Z,7.07
2023-04-25T03:07:11.481Z,7.05
2023-04-25T03:08:11.464Z,7.05
2023-04-25T03:09:11.497Z,7.05
2023-04-25T03:10:11.470Z,7.04
2023-04-25T03:11:11.494Z,7.05
2023-04-25T03:12:11.421Z,7.07
2023-04-25T03:13:11.403Z,7.04
2023-04-25T03:14:11.390Z,7.02
2023-04-25T03:15:11.387Z,7.04
2023-04-25T03:16:11.399Z,6.97
2023-04-25T03:17:11.352Z,6.99
2023-04-25T03:18:11.337Z,6.99
2023-04-25T03:19:11.348Z,7.01
2023-04-25T03:20:11.326Z,6.99
2023-04-25T03:21:11.310Z,6.98
2023-04-25T03:22:11.275Z,7.01
2023-04-25T03:23:11.309Z,6.91
2023-04-25T03:24:11.263Z,6.90
2023-04-25T03:25:11.255Z,6.90
2023-04-25T03:26:11.215Z,6.95
2023-04-25T03:27:11.251Z,6.94
2023-04-25T03:28:11.197Z,6.91
2023-04-25T03:29:11.214Z,6.91
2023-04-25T03:30:11.194Z,6.97
2023-04-25T03:31:11.166Z,6.95
2023-04-25T03:32:11.186Z,6.97
2023-04-25T03:33:11.248Z,6.98
2023-04-25T03:34:11.132Z,6.97
2023-04-25T03:35:11.167Z,6.98
2023-04-25T03:36:11.093Z,6.97
2023-04-25T03:37:11.103Z,6.94
2023-04-25T03:38:11.058Z,6.91
2023-04-25T03:39:11.082Z,6.91
2023-04-25T03:40:11.057Z,6.90
2023-04-25T03:41:11.078Z,6.91
2023-04-25T03:42:11.039Z,6.89
2023-04-25T03:43:11.028Z,6.91
2023-04-25T03:44:10.982Z,6.91
2023-04-25T03:45:10.995Z,6.87
2023-04-25T03:46:11.071Z,6.84
2023-04-25T03:47:10.963Z,6.84
2023-04-25T03:48:10.953Z,6.80
2023-04-25T03:49:10.942Z,6.84
2023-04-25T03:50:10.943Z,6.84
2023-04-25T03:51:10.897Z,6.81
2023-04-25T03:52:10.888Z,6.81
2023-04-25T03:53:10.895Z,6.80
2023-04-25T03:54:10.851Z,6.80
2023-04-25T03:55:10.851Z,6.79
2023-04-25T03:56:10.851Z,6.77
2023-04-25T03:57:10.807Z,6.77
2023-04-25T03:58:10.822Z,6.79
2023-04-25T03:59:10.801Z,6.80
2023-04-25T04:00:10.809Z,6.77
2023-04-25T04:01:10.777Z,6.72
2023-04-25T04:02:10.788Z,6.72
2023-04-25T04:03:10.931Z,6.66
2023-04-25T04:04:10.961Z,6.66
2023-04-25T04:05:10.930Z,6.69
2023-04-25T04:06:10.715Z,6.71
2023-04-25T04:07:10.683Z,6.71
2023-04-25T04:08:10.672Z,6.72
2023-04-25T04:09:10.645Z,6.69
2023-04-25T04:10:10.665Z,6.72
2023-04-25T04:11:10.652Z,6.73
2023-04-25T04:12:10.637Z,6.68
2023-04-25T04:13:10.649Z,6.66
2023-04-25T04:14:10.600Z,6.68
2023-04-25T04:15:10.610Z,6.68
2023-04-25T04:16:10.684Z,6.65
2023-04-25T04:17:10.556Z,6.71
2023-04-25T04:18:10.564Z,6.66
2023-04-25T04:19:10.528Z,6.68
2023-04-25T04:20:10.556Z,6.69
2023-04-25T04:21:10.536Z,6.71
2023-04-25T04:22:10.535Z,6.72
2023-04-25T04:23:10.480Z,6.71
2023-04-25T04:24:10.485Z,6.73
2023-04-25T04:25:10.431Z,6.71
2023-04-25T04:26:10.445Z,6.77
2023-04-25T04:27:10.405Z,6.77
2023-04-25T04:28:10.405Z,6.71
2023-04-25T04:29:10.438Z,6.69
2023-04-25T04:30:10.394Z,6.72
2023-04-25T04:31:10.388Z,6.69
2023-04-25T04:32:10.364Z,6.66
2023-04-25T04:33:10.412Z,6.71
2023-04-25T04:34:10.336Z,6.66
2023-04-25T04:35:10.299Z,6.66
2023-04-25T04:36:10.323Z,6.66
2023-04-25T04:37:10.272Z,6.66
2023-04-25T04:38:10.266Z,6.63
2023-04-25T04:39:10.235Z,6.61
2023-04-25T04:40:10.268Z,6.61
2023-04-25T04:41:10.229Z,6.58
2023-04-25T04:42:10.247Z,6.61
2023-04-25T04:43:10.221Z,6.58
2023-04-25T04:44:10.196Z,6.56
2023-04-25T04:45:10.178Z,6.58
2023-04-25T04:46:10.200Z,6.53
2023-04-25T04:47:10.141Z,6.54
2023-04-25T04:48:10.202Z,6.48
2023-04-25T04:49:10.123Z,6.50
2023-04-25T04:50:10.119Z,6.53
2023-04-25T04:51:10.097Z,6.53
2023-04-25T04:52:10.089Z,6.54
2023-04-25T04:53:10.055Z,6.58
2023-04-25T04:54:10.061Z,6.56
2023-04-25T04:55:10.058Z,6.56
2023-04-25T04:56:10.044Z,6.56
2023-04-25T04:57:10.003Z,6.56
2023-04-25T04:58:10.000Z,6.56
2023-04-25T04:59:09.988Z,6.56
2023-04-25T05:00:09.989Z,6.54
2023-04-25T05:01:10.045Z,6.58
2023-04-25T05:02:09.991Z,6.59
2023-04-25T05:03:10.061Z,6.56
2023-04-25T05:04:10.010Z,6.54
2023-04-25T05:05:09.923Z,6.56
2023-04-25T05:06:09.948Z,6.56
2023-04-25T05:07:09.883Z,6.56
2023-04-25T05:08:09.866Z,6.53
2023-04-25T05:09:09.886Z,6.58
2023-04-25T05:10:09.944Z,6.61
2023-04-25T05:11:09.835Z,6.59
2023-04-25T05:12:09.835Z,6.61
2023-04-25T05:13:09.790Z,6.63
2023-04-25T05:14:09.801Z,6.65
2023-04-25T05:15:09.921Z,6.66
2023-04-25T05:16:09.820Z,6.73
2023-04-25T05:17:09.732Z,6.73
2023-04-25T05:18:09.787Z,6.71
2023-04-25T05:19:09.707Z,6.73
2023-04-25T05:20:09.738Z,6.69
2023-04-25T05:21:09.689Z,6.71
2023-04-25T05:22:09.680Z,6.71
2023-04-25T05:23:09.670Z,6.72
2023-04-25T05:24:09.701Z,6.71
2023-04-25T05:25:09.639Z,6.69
2023-04-25T05:26:09.627Z,6.65
2023-04-25T05:27:09.603Z,6.65
2023-04-25T05:28:09.620Z,6.63
2023-04-25T05:29:09.565Z,6.59
2023-04-25T05:30:09.598Z,6.61
2023-04-25T05:31:09.546Z,6.65
2023-04-25T05:32:09.614Z,6.65
2023-04-25T05:33:09.564Z,6.66
2023-04-25T05:34:09.528Z,6.66
2023-04-25T05:35:09.532Z,6.68
2023-04-25T05:36:09.491Z,6.73
2023-04-25T05:37:09.482Z,6.81
2023-04-25T05:38:09.461Z,6.81
2023-04-25T05:39:09.456Z,6.86
2023-04-25T05:40:09.645Z,6.89
2023-04-25T05:41:09.422Z,6.95
2023-04-25T05:42:09.394Z,6.98
2023-04-25T05:43:09.393Z,6.94
2023-04-25T05:44:09.413Z,6.90
2023-04-25T05:45:09.351Z,6.95
2023-04-25T05:46:09.373Z,7.02
2023-04-25T05:47:09.325Z,7.08
2023-04-25T05:48:09.363Z,7.09
2023-04-25T05:49:09.333Z,7.13
2023-04-25T05:50:09.289Z,7.19
2023-04-25T05:51:09.270Z,7.24
2023-04-25T05:52:09.450Z,7.32
2023-04-25T05:53:09.259Z,7.34
2023-04-25T05:54:09.261Z,7.31
2023-04-25T05:55:09.227Z,7.34
2023-04-25T05:56:09.219Z,7.37
2023-04-25T05:57:09.223Z,7.41
2023-04-25T05:58:09.190Z,7.37
2023-04-25T05:59:09.225Z,7.41
2023-04-25T06:00:09.170Z,7.42
2023-04-25T06:01:09.156Z,7.45
2023-04-25T06:02:09.155Z,7.44
2023-04-25T06:03:09.296Z,7.44
2023-04-25T06:04:09.243Z,7.47
2023-04-25T06:05:09.340Z,7.45
2023-04-25T06:06:09.115Z,7.50
2023-04-25T06:07:09.047Z,7.56
2023-04-25T06:08:09.067Z,7.59
2023-04-25T06:09:09.069Z,7.67
2023-04-25T06:10:09.031Z,7.67
2023-04-25T06:11:09.004Z,7.66
2023-04-25T06:12:09.024Z,7.72
2023-04-25T06:13:08.973Z,7.74
2023-04-25T06:14:08.985Z,7.67
2023-04-25T06:15:23.922Z,7.62
2023-04-25T06:16:09.999Z,7.67
2023-04-25T06:17:08.957Z,7.66
2023-04-25T06:18:08.941Z,7.72
2023-04-25T06:19:08.939Z,7.74
2023-04-25T06:20:08.898Z,7.78
2023-04-25T06:21:08.904Z,7.81
2023-04-25T06:22:08.855Z,7.81
2023-04-25T06:23:08.913Z,7.81
2023-04-25T06:24:08.877Z,7.84
2023-04-25T06:25:08.811Z,7.90
2023-04-25T06:26:08.830Z,7.87
2023-04-25T06:27:08.790Z,7.89
2023-04-25T06:28:08.771Z,7.87
2023-04-25T06:29:08.772Z,7.85
2023-04-25T06:30:08.769Z,7.90
2023-04-25T06:31:08.770Z,7.87
2023-04-25T06:32:08.750Z,7.81
2023-04-25T06:33:08.770Z,7.81
2023-04-25T06:34:08.723Z,7.82
2023-04-25T06:35:08.675Z,7.87
2023-04-25T06:36:08.683Z,7.87
2023-04-25T06:37:08.655Z,7.92
2023-04-25T06:38:08.662Z,7.93
2023-04-25T06:39:08.632Z,8.00
2023-04-25T06:40:08.647Z,7.97
2023-04-25T06:41:08.592Z,7.90
2023-04-25T06:42:08.585Z,7.81
2023-04-25T06:43:08.610Z,7.78
2023-04-25T06:44:08.579Z,7.82
2023-04-25T06:45:08.597Z,7.81
2023-04-25T06:46:08.541Z,7.82
2023-04-25T06:47:08.555Z,7.74
2023-04-25T06:48:08.519Z,7.74
2023-04-25T06:49:08.534Z,7.71
2023-04-25T06:50:08.499Z,7.72
2023-04-25T06:51:08.479Z,7.72
2023-04-25T06:52:08.466Z,7.74
2023-04-25T06:53:08.434Z,7.74
2023-04-25T06:54:08.472Z,7.74
2023-04-25T06:55:08.412Z,7.71
2023-04-25T06:56:08.426Z,7.74
2023-04-25T06:57:08.377Z,7.77
2023-04-25T06:58:08.392Z,7.84
2023-04-25T06:59:08.405Z,7.93
2023-04-25T07:00:08.367Z,7.99
2023-04-25T07:01:08.360Z,8.03
2023-04-25T07:02:08.374Z,8.10
2023-04-25T07:03:08.459Z,8.10
2023-04-25T07:04:08.651Z,8.10
2023-04-25T07:05:08.273Z,8.11
2023-04-25T07:06:08.269Z,8.14
2023-04-25T07:07:08.269Z,8.17
2023-04-25T07:08:08.250Z,8.17
2023-04-25T07:09:08.242Z,8.21
2023-04-25T07:10:08.212Z,8.25
2023-04-25T07:11:08.192Z,8.22
2023-04-25T07:12:08.207Z,8.26
2023-04-25T07:13:08.181Z,8.28
2023-04-25T07:14:08.176Z,8.32
2023-04-25T07:15:08.152Z,8.32
2023-04-25T07:16:08.186Z,8.33
2023-04-25T07:17:08.139Z,8.33
2023-04-25T07:18:08.160Z,8.39
2023-04-25T07:19:08.108Z,8.36
2023-04-25T07:20:08.080Z,8.35
2023-04-25T07:21:08.068Z,8.32
2023-04-25T07:22:08.067Z,8.30
2023-04-25T07:23:08.056Z,8.22
2023-04-25T07:24:08.050Z,8.18
2023-04-25T07:25:08.048Z,8.21
2023-04-25T07:26:08.011Z,8.22
2023-04-25T07:27:07.984Z,8.25
2023-04-25T07:28:07.986Z,8.30
2023-04-25T07:29:07.984Z,8.36
2023-04-25T07:30:07.953Z,8.37
2023-04-25T07:31:07.983Z,8.40
2023-04-25T07:32:08.027Z,8.48
2023-04-25T07:33:07.993Z,8.53
2023-04-25T07:34:07.917Z,8.63
2023-04-25T07:35:07.911Z,8.72
2023-04-25T07:36:07.892Z,8.73
2023-04-25T07:37:07.862Z,8.71
2023-04-25T07:38:07.861Z,8.69
2023-04-25T07:39:07.857Z,8.65
2023-04-25T07:40:07.812Z,8.68
2023-04-25T07:41:07.799Z,8.73
2023-04-25T07:42:07.782Z,8.68
2023-04-25T07:43:07.797Z,8.69
2023-04-25T07:44:07.776Z,8.69
2023-04-25T07:45:07.757Z,8.62
2023-04-25T07:46:07.761Z,8.54
2023-04-25T07:47:07.705Z,8.48
2023-04-25T07:48:07.730Z,8.37
2023-04-25T07:49:07.704Z,8.32
2023-04-25T07:50:07.695Z,8.29
2023-04-25T07:51:07.641Z,8.29
2023-04-25T07:52:07.655Z,8.29
2023-04-25T07:53:07.643Z,8.33
2023-04-25T07:54:07.640Z,8.40
2023-04-25T07:55:07.635Z,8.42
2023-04-25T07:56:07.620Z,8.47
2023-04-25T07:57:07.659Z,8.48
2023-04-25T07:58:07.601Z,8.51
2023-04-25T07:59:07.611Z,8.54
2023-04-25T08:00:07.548Z,8.50
2023-04-25T08:01:07.561Z,8.54
2023-04-25T08:02:07.521Z,8.60
2023-04-25T08:03:07.811Z,8.68
2023-04-25T08:04:07.651Z,8.75
2023-04-25T08:05:07.651Z,8.75
2023-04-25T08:06:08.389Z,8.81
2023-04-25T08:07:07.451Z,8.88
2023-04-25T08:08:07.427Z,8.93
2023-04-25T08:09:07.450Z,8.91
2023-04-25T08:10:07.409Z,8.93
2023-04-25T08:11:07.389Z,8.87
2023-04-25T08:12:07.404Z,8.90
2023-04-25T08:13:07.376Z,8.91
2023-04-25T08:14:07.402Z,8.94
2023-04-25T08:15:07.369Z,8.94
2023-04-25T08:16:07.371Z,8.97
2023-04-25T08:17:07.358Z,8.96
2023-04-25T08:18:07.356Z,9.02
2023-04-25T08:19:07.335Z,9.01
2023-04-25T08:20:07.291Z,9.06
2023-04-25T08:21:07.285Z,9.12
2023-04-25T08:22:07.282Z,9.15
2023-04-25T08:23:07.256Z,9.15
2023-04-25T08:24:07.235Z,9.13
2023-04-25T08:25:07.235Z,9.18
2023-04-25T08:26:07.198Z,9.20
2023-04-25T08:27:07.195Z,9.23
2023-04-25T08:28:07.161Z,9.25
2023-04-25T08:29:07.190Z,9.21
2023-04-25T08:30:07.148Z,9.24
2023-04-25T08:31:07.226Z,9.13
2023-04-25T08:32:07.104Z,9.09
2023-04-25T08:33:07.141Z,9.09
2023-04-25T08:34:07.111Z,9.13
2023-04-25T08:35:07.081Z,9.24
2023-04-25T08:36:07.120Z,9.28
2023-04-25T08:37:07.205Z,9.42
2023-04-25T08:38:07.049Z,9.49
2023-04-25T08:39:07.089Z,9.53
2023-04-25T08:40:07.018Z,9.60
2023-04-25T08:41:06.993Z,9.68
2023-04-25T08:42:06.972Z,9.73
2023-04-25T08:43:06.964Z,9.82
2023-04-25T08:44:06.967Z,9.93
2023-04-25T08:45:07.351Z,9.89
2023-04-25T08:46:06.922Z,9.81
2023-04-25T08:47:07.060Z,9.82
2023-04-25T08:48:06.970Z,9.83
2023-04-25T08:49:06.900Z,9.91
2023-04-25T08:50:06.872Z,10.01
2023-04-25T08:51:06.878Z,10.04
2023-04-25T08:52:06.831Z,10.00
2023-04-25T08:53:06.837Z,10.12
2023-04-25T08:54:12.880Z,10.19
2023-04-25T08:55:07.801Z,10.32
2023-04-25T08:56:06.788Z,10.47
2023-04-25T08:57:06.782Z,10.59
2023-04-25T08:58:06.745Z,10.71
2023-04-25T08:59:06.761Z,10.74
2023-04-25T09:00:06.721Z,10.76
2023-04-25T09:01:06.759Z,10.78
2023-04-25T09:02:06.738Z,10.76
2023-04-25T09:03:06.769Z,10.58
2023-04-25T09:04:06.873Z,10.44
2023-04-25T09:05:06.686Z,10.26
2023-04-25T09:06:06.670Z,10.10
2023-04-25T09:07:06.646Z,10.09
2023-04-25T09:08:06.610Z,10.06
2023-04-25T09:09:06.735Z,10.10
2023-04-25T09:10:06.597Z,10.15
2023-04-25T09:11:06.602Z,10.10
2023-04-25T09:12:06.573Z,10.01
2023-04-25T09:13:06.565Z,9.97
2023-04-25T09:14:06.563Z,9.83
2023-04-25T09:15:06.537Z,9.66
2023-04-25T09:16:06.598Z,9.53
2023-04-25T09:17:06.558Z,9.50
2023-04-25T09:18:06.571Z,9.48
2023-04-25T09:19:06.498Z,9.46
2023-04-25T09:20:06.459Z,9.46
2023-04-25T09:21:12.993Z,9.53
2023-04-25T09:22:07.412Z,9.60
2023-04-25T09:23:06.455Z,9.58
2023-04-25T09:24:06.422Z,9.48
2023-04-25T09:25:06.382Z,9.52
2023-04-25T09:26:06.359Z,9.58
2023-04-25T09:27:06.358Z,9.73
2023-04-25T09:28:06.380Z,9.91
2023-04-25T09:29:06.365Z,10.14
2023-04-25T09:30:06.318Z,10.34
2023-04-25T09:31:06.315Z,10.40
2023-04-25T09:32:06.329Z,10.46
2023-04-25T09:33:06.294Z,10.56
2023-04-25T09:34:06.298Z,10.66
2023-04-25T09:35:06.243Z,10.70
2023-04-25T09:36:06.240Z,10.63
2023-04-25T09:37:06.218Z,10.52
2023-04-25T09:38:06.207Z,10.43
2023-04-25T09:39:06.211Z,10.37
2023-04-25T09:40:06.187Z,10.34
2023-04-25T09:41:06.274Z,10.33
2023-04-25T09:42:06.184Z,10.32
2023-04-25T09:43:06.153Z,10.22
2023-04-25T09:44:06.148Z,10.22
2023-04-25T09:45:06.106Z,10.32
2023-04-25T09:46:06.154Z,10.43
2023-04-25T09:47:06.073Z,10.47
2023-04-25T09:48:06.098Z,10.56
2023-04-25T09:49:06.094Z,10.56
2023-04-25T09:50:06.030Z,10.65
2023-04-25T09:51:06.031Z,10.66
2023-04-25T09:52:06.014Z,10.74
2023-04-25T09:53:06.010Z,10.76
2023-04-25T09:54:06.014Z,10.62
2023-04-25T09:55:05.972Z,10.55
2023-04-25T09:56:05.974Z,10.53
2023-04-25T09:57:05.946Z,10.52
2023-04-25T09:58:05.934Z,10.53
2023-04-25T09:59:05.917Z,10.43
2023-04-25T10:00:05.979Z,10.43
2023-04-25T10:01:05.922Z,10.42
2023-04-25T10:02:05.865Z,10.39
2023-04-25T10:03:05.973Z,10.37
2023-04-25T10:04:05.964Z,10.37
2023-04-25T10:05:05.940Z,10.44
2023-04-25T10:06:05.817Z,10.55
2023-04-25T10:07:05.810Z,10.53
2023-04-25T10:08:05.808Z,10.39
2023-04-25T10:09:05.810Z,10.42
2023-04-25T10:10:05.806Z,10.55
2023-04-25T10:11:05.765Z,10.66
2023-04-25T10:12:05.740Z,10.73
2023-04-25T10:13:05.734Z,10.73
2023-04-25T10:14:05.735Z,10.65
2023-04-25T10:15:05.704Z,10.59
2023-04-25T10:16:05.726Z,10.62
2023-04-25T10:17:05.725Z,10.60
2023-04-25T10:18:05.669Z,10.56
2023-04-25T10:19:05.683Z,10.40
2023-04-25T10:20:05.629Z,10.36
2023-04-25T10:21:05.624Z,10.26
2023-04-25T10:22:05.615Z,10.21
2023-04-25T10:23:05.595Z,10.18
2023-04-25T10:24:05.651Z,10.14
2023-04-25T10:25:05.579Z,10.09
2023-04-25T10:26:05.551Z,10.07
2023-04-25T10:27:05.560Z,10.09
2023-04-25T10:28:05.538Z,10.10
2023-04-25T10:29:05.513Z,10.17
2023-04-25T10:30:05.721Z,10.26
2023-04-25T10:31:05.587Z,10.30
2023-04-25T10:32:05.601Z,10.39
2023-04-25T10:33:05.501Z,10.40
2023-04-25T10:34:05.526Z,10.47
2023-04-25T10:35:05.485Z,10.59
2023-04-25T10:36:05.413Z,10.71
2023-04-25T10:37:05.416Z,10.83
2023-04-25T10:38:05.416Z,10.89
2023-04-25T10:39:05.414Z,10.91
2023-04-25T10:40:05.366Z,10.86
2023-04-25T10:41:05.366Z,10.89
2023-04-25T10:42:05.349Z,10.81
2023-04-25T10:43:05.328Z,10.81
2023-04-25T10:44:05.356Z,10.78
2023-04-25T10:45:05.310Z,10.68
2023-04-25T10:46:05.301Z,10.68
2023-04-25T10:47:05.369Z,10.81
2023-04-25T10:48:05.289Z,10.95
2023-04-25T10:49:05.265Z,11.28
2023-04-25T10:50:05.217Z,11.49
2023-04-25T10:51:05.220Z,12.04
2023-04-25T10:52:05.206Z,12.41
2023-04-25T10:53:05.188Z,12.93
2023-04-25T10:54:05.190Z,13.27
2023-04-25T10:55:05.170Z,13.80
2023-04-25T10:56:05.146Z,13.79
2023-04-25T10:57:05.135Z,13.81
2023-04-25T10:58:05.138Z,13.74
2023-04-25T10:59:05.187Z,13.62
2023-04-25T11:00:05.153Z,13.17
2023-04-25T11:01:05.094Z,12.70
2023-04-25T11:02:05.180Z,12.26
2023-04-25T11:03:05.195Z,12.01
2023-04-25T11:04:05.193Z,12.11
2023-04-25T11:05:05.044Z,13.06
2023-04-25T11:06:05.005Z,13.51
2023-04-25T11:07:07.063Z,13.33
2023-04-25T11:08:08.226Z,13.15
2023-04-25T11:09:05.021Z,13.49
2023-04-25T11:10:04.945Z,13.25
2023-04-25T11:11:04.939Z,13.11
2023-04-25T11:12:04.935Z,12.95
2023-04-25T11:13:04.922Z,12.77
2023-04-25T11:14:04.933Z,12.64
2023-04-25T11:15:04.885Z,13.20
2023-04-25T11:16:12.500Z,13.80
2023-04-25T11:17:05.916Z,13.81
2023-04-25T11:18:04.859Z,13.79
2023-04-25T11:19:04.887Z,13.55
2023-04-25T11:20:04.823Z,13.15
2023-04-25T11:21:04.818Z,12.89
2023-04-25T11:22:04.839Z,12.60
2023-04-25T11:24:04.783Z,12.09
2023-04-25T11:25:04.753Z,11.89
2023-04-25T11:26:04.735Z,11.70
2023-04-25T11:27:04.943Z,11.57
2023-04-25T11:28:04.749Z,11.50
2023-04-25T11:29:04.745Z,11.44
2023-04-25T11:30:04.682Z,11.50
2023-04-25T11:31:04.672Z,12.27
2023-04-25T11:32:04.722Z,12.71
2023-04-25T11:33:04.712Z,12.57
2023-04-25T11:34:04.680Z,12.45
2023-04-25T11:35:04.624Z,12.39
2023-04-25T11:36:04.596Z,12.23
2023-04-25T11:37:04.599Z,11.99
2023-04-25T11:38:04.626Z,11.80
2023-04-25T11:39:04.960Z,11.85
2023-04-25T11:40:04.572Z,12.02
2023-04-25T11:41:04.533Z,13.03
2023-04-25T11:42:06.159Z,13.80
2023-04-25T11:43:04.511Z,14.42
2023-04-25T11:44:04.512Z,14.88
2023-04-25T11:45:04.487Z,15.41
2023-04-25T11:46:04.472Z,15.94
2023-04-25T11:47:04.448Z,16.14
2023-04-25T11:48:04.502Z,16.34
2023-04-25T11:49:04.429Z,16.52
2023-04-25T11:50:04.425Z,16.55
2023-04-25T11:51:04.399Z,16.77
2023-04-25T11:52:04.396Z,16.74
2023-04-25T11:53:04.610Z,16.78
2023-04-25T11:54:04.367Z,16.81
2023-04-25T11:55:04.353Z,16.15
2023-04-25T11:56:04.320Z,15.75
2023-04-25T11:57:04.357Z,15.31
2023-04-25T11:58:04.298Z,15.13
2023-04-25T11:59:04.311Z,14.61
2023-04-25T12:00:04.258Z,14.01
2023-04-25T12:01:04.264Z,13.54
2023-04-25T12:02:04.258Z,13.37
2023-04-25T12:03:04.373Z,13.18
2023-04-25T12:04:04.402Z,12.96
2023-04-25T12:05:16.298Z,12.82
2023-04-25T12:06:05.449Z,12.70
2023-04-25T12:07:04.234Z,12.39
2023-04-25T12:08:04.163Z,12.42
2023-04-25T12:09:04.175Z,12.34
2023-04-25T12:10:04.133Z,12.45
2023-04-25T12:11:04.130Z,12.45
2023-04-25T12:12:04.446Z,12.49
2023-04-25T12:13:04.111Z,12.48
2023-04-25T12:14:04.140Z,12.44
2023-04-25T12:15:04.066Z,12.29
2023-04-25T12:16:04.102Z,12.06
2023-04-25T12:17:04.086Z,11.89
2023-04-25T12:18:04.121Z,11.75
2023-04-25T12:19:04.057Z,11.50
2023-04-25T12:20:04.000Z,11.17
2023-04-25T12:21:03.989Z,10.95
2023-04-25T12:22:04.084Z,10.63
2023-04-25T12:23:03.958Z,10.47
2023-04-25T12:24:03.962Z,10.34
2023-04-25T12:25:03.925Z,10.36
2023-04-25T12:26:03.927Z,10.37
2023-04-25T12:27:03.963Z,10.34
2023-04-25T12:28:03.903Z,10.42
2023-04-25T12:29:03.956Z,10.33
2023-04-25T12:30:03.877Z,10.28
2023-04-25T12:31:03.874Z,10.44
2023-04-25T12:32:03.849Z,10.34
2023-04-25T12:33:03.826Z,10.22
2023-04-25T12:34:03.828Z,10.43
2023-04-25T12:35:03.797Z,10.76
2023-04-25T12:36:04.598Z,10.63
2023-04-25T12:37:03.791Z,10.46
2023-04-25T12:38:03.775Z,10.46
2023-04-25T12:39:03.747Z,10.68
2023-04-25T12:40:03.742Z,11.41
2023-04-25T12:41:03.707Z,12.23
2023-04-25T12:42:03.715Z,12.89
2023-04-25T12:43:03.708Z,13.41
2023-04-25T12:44:03.691Z,13.40
2023-04-25T12:45:03.695Z,13.29
2023-04-25T12:46:03.660Z,13.62
2023-04-25T12:47:03.722Z,13.94
2023-04-25T12:48:04.223Z,14.07
2023-04-25T12:49:17.251Z,14.32
2023-04-25T12:50:04.595Z,14.65
2023-04-25T12:51:03.623Z,14.39
2023-04-25T12:52:03.576Z,14.38
2023-04-25T12:53:03.542Z,14.32
2023-04-25T12:54:03.557Z,14.17
2023-04-25T12:55:03.531Z,14.32
2023-04-25T12:56:03.517Z,14.49
2023-04-25T12:57:03.506Z,14.09
2023-04-25T12:58:03.484Z,13.84
2023-04-25T12:59:03.474Z,13.40
2023-04-25T13:00:03.479Z,13.02
2023-04-25T13:01:03.481Z,12.62
2023-04-25T13:02:03.437Z,12.29
2023-04-25T13:03:03.621Z,11.85
2023-04-25T13:04:03.605Z,11.62
2023-04-25T13:05:03.374Z,11.46
2023-04-25T13:06:03.389Z,11.35
2023-04-25T13:07:03.354Z,11.11
2023-04-25T13:08:03.365Z,10.98
2023-04-25T13:09:03.324Z,10.92
2023-04-25T13:10:03.336Z,10.84
2023-04-25T13:11:03.308Z,10.74